createdAt,value
2017-04-30T00:00:02.571Z,17.76
2017-04-30T00:00:30.689Z,17.76
2017-04-30T00:00:58.897Z,17.6
2017-04-30T00:01:26.993Z,17.78
2017-04-30T00:01:55.112Z,17.71
2017-04-30T00:02:23.126Z,17.57
2017-04-30T00:02:51.228Z,17.57
2017-04-30T00:03:19.249Z,17.6
2017-04-30T00:03:47.356Z,17.6
2017-04-30T00:04:15.459Z,17.57
2017-04-30T00:04:43.574Z,17.52
2017-04-30T00:05:11.682Z,17.56
2017-04-30T00:05:39.780Z,17.66
2017-04-30T00:06:07.884Z,17.59
2017-04-30T00:06:35.903Z,17.59
2017-04-30T00:07:04.008Z,17.54
2017-04-30T00:07:32.132Z,17.41
2017-04-30T00:08:00.273Z,17.41
2017-04-30T00:08:28.259Z,17.53
2017-04-30T00:08:56.274Z,17.49
2017-04-30T00:09:24.376Z,17.44
2017-04-30T00:09:52.472Z,17.5
2017-04-30T00:10:20.598Z,17.44
2017-04-30T00:10:48.709Z,17.44
2017-04-30T00:11:16.813Z,17.49
2017-04-30T00:11:44.822Z,17.32
2017-04-30T00:12:12.831Z,17.38
2017-04-30T00:12:40.938Z,17.35
2017-04-30T00:13:09.045Z,17.46
2017-04-30T00:13:37.171Z,17.41
2017-04-30T00:14:05.187Z,17.41
2017-04-30T00:14:33.211Z,17.35
2017-04-30T00:15:01.314Z,17.39
2017-04-30T00:15:29.421Z,17.41
2017-04-30T00:15:57.532Z,17.35
2017-04-30T00:16:25.636Z,17.44
2017-04-30T00:16:53.754Z,17.47
2017-04-30T00:17:21.852Z,17.37
2017-04-30T00:17:49.993Z,17.39
2017-04-30T00:18:18.092Z,17.41
2017-04-30T00:18:46.114Z,17.44
2017-04-30T00:19:14.221Z,17.39
2017-04-30T00:19:42.321Z,17.38
2017-04-30T00:20:10.422Z,17.44
2017-04-30T00:20:38.539Z,17.42
2017-04-30T00:21:06.647Z,17.42
2017-04-30T00:21:34.753Z,17.42
2017-04-30T00:22:02.843Z,17.5
2017-04-30T00:22:30.866Z,17.42
2017-04-30T00:22:58.972Z,17.47
2017-04-30T00:23:26.987Z,17.44
2017-04-30T00:23:55.012Z,17.42
2017-04-30T00:24:23.112Z,17.47
2017-04-30T00:24:51.221Z,17.41
2017-04-30T00:25:19.434Z,17.5
2017-04-30T00:25:47.553Z,17.39
2017-04-30T00:26:15.564Z,17.52
2017-04-30T00:26:43.571Z,17.44
2017-04-30T00:27:11.687Z,17.56
2017-04-30T00:27:39.714Z,17.41
2017-04-30T00:28:07.818Z,17.42
2017-04-30T00:28:35.837Z,17.57
2017-04-30T00:29:03.937Z,17.42
2017-04-30T00:29:31.936Z,17.44
2017-04-30T00:30:00.044Z,17.46
2017-04-30T00:30:28.164Z,17.49
2017-04-30T00:30:56.261Z,17.44
2017-04-30T00:31:24.266Z,17.44
2017-04-30T00:31:52.272Z,17.41
2017-04-30T00:32:20.269Z,17.44
2017-04-30T00:32:48.373Z,17.39
2017-04-30T00:33:16.498Z,17.49
2017-04-30T00:33:44.521Z,17.41
2017-04-30T00:34:12.621Z,17.35
2017-04-30T00:34:40.707Z,17.39
2017-04-30T00:35:08.803Z,17.44
2017-04-30T00:35:36.905Z,17.46
2017-04-30T00:36:04.991Z,17.47
2017-04-30T00:36:33.072Z,17.47
2017-04-30T00:37:01.185Z,17.44
2017-04-30T00:37:29.312Z,17.44
2017-04-30T00:37:57.426Z,17.41
2017-04-30T00:38:25.522Z,17.37
2017-04-30T00:38:53.614Z,17.39
2017-04-30T00:39:21.773Z,17.34
2017-04-30T00:39:49.866Z,17.38
2017-04-30T00:40:17.972Z,17.32
2017-04-30T00:40:46.096Z,17.38
2017-04-30T00:41:14.213Z,17.31
2017-04-30T00:41:42.317Z,17.31
2017-04-30T00:42:10.410Z,17.27
2017-04-30T00:42:38.536Z,17.28
2017-04-30T00:43:06.640Z,17.3
2017-04-30T00:43:34.752Z,17.24
2017-04-30T00:44:02.853Z,17.22
2017-04-30T00:44:30.960Z,17.28
2017-04-30T00:44:59.049Z,17.24
2017-04-30T00:45:27.070Z,17.22
2017-04-30T00:45:55.173Z,17.24
2017-04-30T00:46:23.180Z,17.27
2017-04-30T00:46:51.288Z,17.19
2017-04-30T00:47:19.387Z,17.16
2017-04-30T00:47:47.386Z,17.19
2017-04-30T00:48:15.375Z,17.14
2017-04-30T00:48:43.383Z,17.16
2017-04-30T00:49:11.483Z,17.14
2017-04-30T00:49:39.583Z,17.14
2017-04-30T00:50:07.675Z,17.14
2017-04-30T00:50:35.762Z,17.14
2017-04-30T00:51:03.866Z,17.17
2017-04-30T00:51:31.860Z,17.13
2017-04-30T00:51:59.886Z,17.19
2017-04-30T00:52:27.889Z,17.13
2017-04-30T00:52:55.907Z,17.12
2017-04-30T00:53:23.999Z,17.14
2017-04-30T00:53:52.110Z,17.13
2017-04-30T00:54:20.136Z,17.13
2017-04-30T00:54:48.217Z,17.13
2017-04-30T00:55:16.321Z,17.12
2017-04-30T00:55:44.446Z,17.17
2017-04-30T00:56:12.562Z,17.14
2017-04-30T00:56:40.608Z,17.17
2017-04-30T00:57:08.611Z,17.2
2017-04-30T00:57:36.722Z,17.19
2017-04-30T00:58:04.840Z,17.22
2017-04-30T00:58:32.943Z,17.22
2017-04-30T00:59:01.052Z,17.19
2017-04-30T00:59:29.165Z,17.22
2017-04-30T00:59:57.181Z,17.22
2017-04-30T01:00:25.088Z,17.2
2017-04-30T01:00:53.239Z,17.17
2017-04-30T01:01:21.326Z,17.22
2017-04-30T01:01:49.441Z,17.14
2017-04-30T01:02:17.570Z,17.17
2017-04-30T01:02:45.684Z,17.14
2017-04-30T01:03:13.779Z,17.16
2017-04-30T01:03:41.887Z,17.17
2017-04-30T01:04:09.981Z,17.13
2017-04-30T01:04:38.078Z,17.14
2017-04-30T01:05:06.211Z,17.16
2017-04-30T01:05:34.250Z,17.07
2017-04-30T01:06:02.320Z,17.13
2017-04-30T01:06:30.317Z,17.09
2017-04-30T01:06:58.414Z,17.05
2017-04-30T01:07:26.507Z,17.04
2017-04-30T01:07:54.618Z,16.99
2017-04-30T01:08:22.724Z,17.13
2017-04-30T01:08:50.824Z,17.02
2017-04-30T01:09:18.857Z,17.07
2017-04-30T01:09:46.867Z,17.02
2017-04-30T01:10:14.989Z,16.98
2017-04-30T01:10:43.108Z,16.98
2017-04-30T01:11:11.119Z,16.98
2017-04-30T01:11:39.112Z,17.01
2017-04-30T01:12:07.109Z,17.02
2017-04-30T01:12:35.214Z,16.98
2017-04-30T01:13:03.324Z,17.01
2017-04-30T01:13:31.423Z,17.01
2017-04-30T01:13:59.524Z,16.99
2017-04-30T01:14:27.630Z,16.99
2017-04-30T01:14:55.724Z,16.98
2017-04-30T01:15:23.831Z,16.99
2017-04-30T01:15:51.960Z,16.87
2017-04-30T01:16:20.067Z,16.87
2017-04-30T01:16:48.076Z,16.86
2017-04-30T01:17:16.178Z,16.86
2017-04-30T01:17:44.278Z,16.92
2017-04-30T01:18:12.276Z,16.94
2017-04-30T01:18:40.390Z,16.89
2017-04-30T01:19:08.488Z,16.89
2017-04-30T01:19:36.574Z,16.91
2017-04-30T01:20:04.681Z,16.84
2017-04-30T01:20:32.823Z,16.86
2017-04-30T01:21:00.962Z,16.86
2017-04-30T01:21:28.964Z,16.91
2017-04-30T01:21:57.058Z,16.86
2017-04-30T01:22:25.142Z,16.87
2017-04-30T01:22:53.248Z,16.83
2017-04-30T01:23:21.345Z,16.84
2017-04-30T01:23:49.465Z,16.87
2017-04-30T01:24:17.578Z,16.95
2017-04-30T01:24:45.671Z,16.92
2017-04-30T01:25:13.674Z,16.89
2017-04-30T01:25:41.764Z,16.97
2017-04-30T01:26:09.776Z,16.94
2017-04-30T01:26:37.877Z,16.92
2017-04-30T01:27:05.973Z,16.94
2017-04-30T01:27:34.074Z,16.87
2017-04-30T01:28:02.087Z,16.94
2017-04-30T01:28:30.085Z,16.99
2017-04-30T01:28:58.171Z,16.97
2017-04-30T01:29:26.266Z,17.04
2017-04-30T01:29:54.365Z,16.92
2017-04-30T01:30:22.481Z,16.95
2017-04-30T01:30:50.492Z,16.95
2017-04-30T01:31:18.610Z,16.99
2017-04-30T01:31:46.603Z,16.99
2017-04-30T01:32:14.695Z,16.87
2017-04-30T01:32:42.797Z,16.99
2017-04-30T01:33:10.895Z,16.92
2017-04-30T01:33:38.991Z,16.91
2017-04-30T01:34:07.020Z,16.91
2017-04-30T01:34:35.123Z,16.92
2017-04-30T01:35:03.243Z,16.87
2017-04-30T01:35:31.265Z,16.92
2017-04-30T01:35:59.375Z,16.86
2017-04-30T01:36:27.487Z,16.87
2017-04-30T01:36:55.592Z,16.83
2017-04-30T01:37:23.717Z,16.87
2017-04-30T01:37:52.162Z,16.95
2017-04-30T01:38:20.126Z,16.89
2017-04-30T01:38:48.212Z,16.91
2017-04-30T01:39:16.227Z,16.95
2017-04-30T01:39:44.363Z,16.91
2017-04-30T01:40:12.471Z,16.94
2017-04-30T01:40:40.588Z,16.95
2017-04-30T01:41:08.588Z,16.92
2017-04-30T01:41:36.685Z,17.02
2017-04-30T01:42:04.789Z,16.99
2017-04-30T01:42:32.799Z,17.05
2017-04-30T01:43:00.880Z,17.01
2017-04-30T01:43:28.994Z,16.99
2017-04-30T01:43:57.019Z,16.98
2017-04-30T01:44:25.105Z,17.09
2017-04-30T01:44:53.107Z,17.01
2017-04-30T01:45:21.209Z,17.07
2017-04-30T01:45:49.306Z,17.02
2017-04-30T01:46:17.410Z,17.02
2017-04-30T01:46:45.428Z,17.13
2017-04-30T01:47:13.436Z,17.14
2017-04-30T01:47:41.457Z,17.04
2017-04-30T01:48:09.370Z,17.16
2017-04-30T01:48:37.486Z,17.16
2017-04-30T01:49:05.594Z,17.13
2017-04-30T01:49:33.689Z,17.04
2017-04-30T01:50:01.693Z,17.14
2017-04-30T01:50:29.694Z,17.13
2017-04-30T01:50:57.715Z,17.13
2017-04-30T01:51:25.821Z,17.02
2017-04-30T01:51:53.925Z,17.02
2017-04-30T01:52:22.021Z,17.01
2017-04-30T01:52:50.022Z,17.07
2017-04-30T01:53:18.034Z,16.98
2017-04-30T01:53:46.031Z,16.98
2017-04-30T01:54:14.125Z,16.97
2017-04-30T01:54:42.236Z,17.04
2017-04-30T01:55:10.352Z,16.97
2017-04-30T01:55:38.458Z,16.99
2017-04-30T01:56:06.568Z,17.01
2017-04-30T01:56:34.593Z,16.99
2017-04-30T01:57:02.708Z,17.04
2017-04-30T01:57:30.699Z,17.01
2017-04-30T01:57:58.705Z,17.05
2017-04-30T01:58:26.816Z,16.98
2017-04-30T01:58:54.943Z,16.98
2017-04-30T01:59:23.054Z,17.01
2017-04-30T01:59:51.148Z,16.99
2017-04-30T02:00:19.251Z,17.04
2017-04-30T02:00:47.282Z,16.95
2017-04-30T02:01:15.379Z,16.98
2017-04-30T02:01:43.380Z,17.02
2017-04-30T02:02:11.508Z,17.02
2017-04-30T02:02:39.604Z,16.99
2017-04-30T02:03:07.698Z,17.01
2017-04-30T02:03:35.610Z,17.05
2017-04-30T02:04:03.711Z,16.97
2017-04-30T02:04:31.814Z,17.04
2017-04-30T02:04:59.917Z,17.1
2017-04-30T02:05:28.021Z,17.07
2017-04-30T02:05:56.042Z,17.09
2017-04-30T02:06:24.154Z,17.04
2017-04-30T02:06:52.153Z,17.01
2017-04-30T02:07:20.258Z,17.12
2017-04-30T02:07:48.255Z,17.04
2017-04-30T02:08:16.368Z,17.07
2017-04-30T02:08:44.376Z,17.04
2017-04-30T02:09:12.381Z,16.99
2017-04-30T02:09:40.404Z,16.99
2017-04-30T02:10:08.425Z,17.09
2017-04-30T02:10:36.530Z,17.01
2017-04-30T02:11:04.644Z,17.05
2017-04-30T02:11:32.751Z,17.04
2017-04-30T02:12:00.864Z,17.04
2017-04-30T02:12:28.873Z,17.13
2017-04-30T02:12:56.902Z,17.13
2017-04-30T02:13:25.022Z,17.02
2017-04-30T02:13:53.133Z,17.04
2017-04-30T02:14:21.226Z,17.02
2017-04-30T02:14:49.246Z,17.04
2017-04-30T02:15:17.346Z,17.05
2017-04-30T02:15:45.439Z,17.04
2017-04-30T02:16:13.553Z,16.99
2017-04-30T02:16:41.557Z,17.07
2017-04-30T02:17:09.669Z,17.02
2017-04-30T02:17:37.767Z,17.09
2017-04-30T02:18:05.867Z,17.02
2017-04-30T02:18:33.962Z,16.97
2017-04-30T02:19:02.064Z,17.05
2017-04-30T02:19:30.170Z,17.05
2017-04-30T02:19:58.265Z,17.04
2017-04-30T02:20:26.274Z,17.04
2017-04-30T02:20:54.290Z,17.13
2017-04-30T02:21:22.395Z,17.07
2017-04-30T02:21:50.389Z,17.04
2017-04-30T02:22:18.395Z,17.05
2017-04-30T02:22:46.408Z,17.02
2017-04-30T02:23:14.520Z,17.02
2017-04-30T02:23:42.605Z,17.04
2017-04-30T02:24:10.695Z,17.05
2017-04-30T02:24:38.700Z,17.04
2017-04-30T02:25:06.814Z,17.17
2017-04-30T02:25:34.852Z,17.14
2017-04-30T02:26:02.871Z,17.16
2017-04-30T02:26:31.014Z,17.1
2017-04-30T02:26:59.118Z,17.1
2017-04-30T02:27:27.228Z,17.13
2017-04-30T02:27:55.242Z,17.09
2017-04-30T02:28:23.251Z,17.17
2017-04-30T02:28:51.351Z,17.14
2017-04-30T02:29:19.488Z,17.14
2017-04-30T02:29:47.605Z,17.13
2017-04-30T02:30:15.698Z,17.12
2017-04-30T02:30:43.594Z,17.17
2017-04-30T02:31:11.691Z,17.2
2017-04-30T02:31:39.809Z,17.16
2017-04-30T02:32:07.912Z,17.19
2017-04-30T02:32:35.915Z,17.07
2017-04-30T02:33:04.014Z,17.09
2017-04-30T02:33:32.035Z,17.1
2017-04-30T02:34:00.140Z,17.17
2017-04-30T02:34:28.254Z,17.14
2017-04-30T02:34:56.346Z,17.16
2017-04-30T02:35:24.357Z,17.19
2017-04-30T02:35:52.449Z,17.13
2017-04-30T02:36:20.553Z,17.17
2017-04-30T02:36:48.650Z,17.1
2017-04-30T02:37:16.691Z,17.14
2017-04-30T02:37:44.801Z,17.16
2017-04-30T02:38:12.882Z,17.14
2017-04-30T02:38:40.896Z,17.17
2017-04-30T02:39:09.006Z,17.17
2017-04-30T02:39:37.445Z,17.17
2017-04-30T02:40:07.220Z,17.16
2017-04-30T02:40:35.680Z,17.22
2017-04-30T02:41:04.068Z,17.17
2017-04-30T02:41:32.623Z,17.23
2017-04-30T02:42:01.099Z,17.17
2017-04-30T02:42:29.373Z,17.19
2017-04-30T02:42:57.929Z,17.23
2017-04-30T02:43:26.412Z,17.23
2017-04-30T02:43:54.970Z,17.2
2017-04-30T02:44:23.344Z,17.24
2017-04-30T02:44:51.905Z,17.24
2017-04-30T02:45:20.448Z,17.28
2017-04-30T02:45:49.018Z,17.24
2017-04-30T02:46:17.495Z,17.3
2017-04-30T02:46:46.059Z,17.24
2017-04-30T02:47:14.627Z,17.22
2017-04-30T02:47:43.202Z,17.24
2017-04-30T02:48:11.771Z,17.23
2017-04-30T02:48:40.338Z,17.24
2017-04-30T02:49:08.899Z,17.28
2017-04-30T02:49:37.466Z,17.32
2017-04-30T02:50:06.043Z,17.23
2017-04-30T02:50:34.608Z,17.3
2017-04-30T02:51:03.173Z,17.34
2017-04-30T02:51:31.750Z,17.37
2017-04-30T02:52:00.320Z,17.38
2017-04-30T02:52:28.892Z,17.38
2017-04-30T02:52:57.356Z,17.32
2017-04-30T02:53:25.911Z,17.44
2017-04-30T02:53:54.479Z,17.32
2017-04-30T02:54:22.964Z,17.37
2017-04-30T02:54:51.545Z,17.37
2017-04-30T02:55:20.041Z,17.35
2017-04-30T02:55:48.618Z,17.39
2017-04-30T02:56:17.089Z,17.37
2017-04-30T02:56:45.568Z,17.41
2017-04-30T02:57:14.041Z,17.35
2017-04-30T02:57:42.605Z,17.35
2017-04-30T02:58:11.164Z,17.31
2017-04-30T02:58:39.625Z,17.34
2017-04-30T02:59:08.186Z,17.34
2017-04-30T02:59:36.820Z,17.23
2017-04-30T03:00:05.270Z,17.2
2017-04-30T03:00:33.847Z,17.17
2017-04-30T03:01:02.312Z,17.17
2017-04-30T03:01:30.684Z,17.22
2017-04-30T03:01:59.264Z,17.14
2017-04-30T03:02:27.770Z,17.13
2017-04-30T03:02:56.325Z,17.13
2017-04-30T03:03:24.903Z,17.19
2017-04-30T03:03:53.492Z,17.16
2017-04-30T03:04:21.970Z,17.19
2017-04-30T03:04:50.528Z,17.22
2017-04-30T03:05:19.007Z,17.2
2017-04-30T03:05:47.558Z,17.1
2017-04-30T03:06:16.144Z,17.14
2017-04-30T03:06:44.727Z,17.1
2017-04-30T03:07:13.213Z,17.16
2017-04-30T03:07:41.779Z,17.14
2017-04-30T03:08:10.333Z,17.1
2017-04-30T03:08:38.855Z,17.09
2017-04-30T03:09:07.392Z,17.14
2017-04-30T03:09:35.848Z,17.13
2017-04-30T03:10:04.413Z,17.12
2017-04-30T03:10:32.984Z,17.1
2017-04-30T03:11:01.517Z,17.12
2017-04-30T03:11:29.980Z,17.12
2017-04-30T03:11:58.522Z,17.1
2017-04-30T03:12:27.011Z,17.16
2017-04-30T03:12:55.589Z,17.13
2017-04-30T03:13:24.160Z,17.12
2017-04-30T03:13:52.740Z,17.09
2017-04-30T03:14:21.321Z,17.12
2017-04-30T03:14:49.878Z,17.14
2017-04-30T03:15:18.453Z,17.09
2017-04-30T03:15:46.987Z,17.09
2017-04-30T03:16:15.553Z,17.14
2017-04-30T03:16:44.110Z,17.09
2017-04-30T03:17:12.661Z,17.14
2017-04-30T03:17:41.227Z,17.04
2017-04-30T03:18:09.815Z,17.14
2017-04-30T03:18:38.389Z,17.16
2017-04-30T03:19:06.994Z,17.16
2017-04-30T03:19:35.440Z,17.1
2017-04-30T03:20:04.072Z,17.05
2017-04-30T03:20:32.619Z,17.09
2017-04-30T03:21:01.102Z,17.1
2017-04-30T03:21:29.660Z,17.05
2017-04-30T03:21:58.228Z,17.02
2017-04-30T03:22:26.778Z,17.04
2017-04-30T03:22:55.348Z,17.1
2017-04-30T03:23:23.829Z,17.14
2017-04-30T03:23:52.396Z,17.2
2017-04-30T03:24:20.994Z,17.12
2017-04-30T03:24:49.449Z,17.1
2017-04-30T03:25:18.074Z,17.07
2017-04-30T03:25:46.535Z,17.16
2017-04-30T03:26:15.165Z,17.13
2017-04-30T03:26:43.683Z,17.19
2017-04-30T03:27:12.253Z,17.14
2017-04-30T03:27:40.990Z,17.14
2017-04-30T03:28:09.554Z,17.13
2017-04-30T03:28:37.945Z,17.1
2017-04-30T03:29:06.520Z,17.12
2017-04-30T03:29:35.105Z,17.14
2017-04-30T03:30:03.604Z,17.19
2017-04-30T03:30:32.111Z,17.19
2017-04-30T03:31:00.811Z,17.2
2017-04-30T03:31:29.269Z,17.17
2017-04-30T03:31:57.850Z,17.22
2017-04-30T03:32:26.421Z,17.23
2017-04-30T03:32:54.911Z,17.17
2017-04-30T03:33:23.383Z,17.19
2017-04-30T03:33:51.935Z,17.24
2017-04-30T03:34:20.516Z,17.27
2017-04-30T03:34:49.101Z,17.22
2017-04-30T03:35:17.584Z,17.24
2017-04-30T03:35:46.149Z,17.3
2017-04-30T03:36:14.733Z,17.27
2017-04-30T03:36:43.279Z,17.28
2017-04-30T03:37:11.753Z,17.27
2017-04-30T03:37:40.314Z,17.32
2017-04-30T03:38:08.878Z,17.31
2017-04-30T03:38:37.350Z,17.32
2017-04-30T03:39:05.721Z,17.27
2017-04-30T03:39:34.280Z,17.22
2017-04-30T03:40:02.849Z,17.23
2017-04-30T03:40:31.401Z,17.24
2017-04-30T03:40:59.980Z,17.23
2017-04-30T03:41:28.457Z,17.28
2017-04-30T03:41:57.027Z,17.22
2017-04-30T03:42:25.391Z,17.28
2017-04-30T03:42:53.952Z,17.2
2017-04-30T03:43:22.531Z,17.2
2017-04-30T03:43:51.087Z,17.23
2017-04-30T03:44:19.568Z,17.23
2017-04-30T03:44:48.146Z,17.19
2017-04-30T03:45:16.702Z,17.23
2017-04-30T03:45:45.262Z,17.2
2017-04-30T03:46:13.644Z,17.14
2017-04-30T03:46:42.197Z,17.19
2017-04-30T03:47:10.327Z,17.27
2017-04-30T03:47:38.436Z,17.27
2017-04-30T03:48:06.539Z,17.23
2017-04-30T03:48:34.598Z,17.19
2017-04-30T03:49:02.702Z,17.2
2017-04-30T03:49:30.713Z,17.22
2017-04-30T03:49:58.731Z,17.31
2017-04-30T03:50:26.831Z,17.23
2017-04-30T03:50:54.917Z,17.3
2017-04-30T03:51:23.004Z,17.27
2017-04-30T03:51:51.121Z,17.22
2017-04-30T03:52:19.031Z,17.3
2017-04-30T03:52:47.050Z,17.32
2017-04-30T03:53:15.060Z,17.37
2017-04-30T03:53:43.181Z,17.28
2017-04-30T03:54:11.206Z,17.28
2017-04-30T03:54:39.320Z,17.3
2017-04-30T03:55:07.437Z,17.22
2017-04-30T03:55:35.353Z,17.2
2017-04-30T03:56:03.472Z,17.19
2017-04-30T03:56:31.585Z,17.16
2017-04-30T03:56:59.604Z,17.17
2017-04-30T03:57:27.702Z,17.14
2017-04-30T03:57:55.801Z,17.22
2017-04-30T03:58:23.925Z,17.17
2017-04-30T03:58:52.031Z,17.22
2017-04-30T03:59:20.122Z,17.24
2017-04-30T03:59:48.230Z,17.22
2017-04-30T04:00:16.160Z,17.2
2017-04-30T04:00:46.327Z,17.23
2017-04-30T04:01:14.432Z,17.2
2017-04-30T04:01:42.557Z,17.19
2017-04-30T04:02:10.661Z,17.22
2017-04-30T04:02:38.693Z,17.27
2017-04-30T04:03:06.693Z,17.23
2017-04-30T04:03:34.805Z,17.22
2017-04-30T04:04:02.909Z,17.24
2017-04-30T04:04:31.015Z,17.3
2017-04-30T04:04:59.120Z,17.23
2017-04-30T04:05:27.135Z,17.28
2017-04-30T04:05:55.245Z,17.3
2017-04-30T04:06:23.172Z,17.3
2017-04-30T04:06:51.281Z,17.22
2017-04-30T04:07:19.297Z,17.23
2017-04-30T04:07:47.393Z,17.23
2017-04-30T04:08:15.477Z,17.16
2017-04-30T04:08:43.396Z,17.23
2017-04-30T04:09:11.500Z,17.17
2017-04-30T04:09:39.594Z,17.19
2017-04-30T04:10:07.723Z,17.19
2017-04-30T04:10:36.106Z,17.14
2017-04-30T04:11:04.210Z,17.17
2017-04-30T04:11:32.242Z,17.14
2017-04-30T04:12:00.264Z,17.13
2017-04-30T04:12:28.355Z,17.12
2017-04-30T04:12:56.378Z,17.12
2017-04-30T04:13:24.479Z,17.12
2017-04-30T04:13:52.594Z,17.19
2017-04-30T04:14:20.692Z,17.13
2017-04-30T04:14:48.784Z,17.13
2017-04-30T04:15:16.900Z,17.13
2017-04-30T04:15:44.924Z,17.1
2017-04-30T04:16:13.027Z,17.09
2017-04-30T04:16:41.134Z,17.14
2017-04-30T04:17:09.238Z,17.14
2017-04-30T04:17:37.345Z,17.2
2017-04-30T04:18:05.451Z,17.2
2017-04-30T04:18:33.562Z,17.14
2017-04-30T04:19:01.669Z,17.12
2017-04-30T04:19:29.707Z,17.09
2017-04-30T04:19:57.795Z,17.13
2017-04-30T04:20:25.882Z,17.19
2017-04-30T04:20:53.909Z,17.19
2017-04-30T04:21:22.042Z,17.2
2017-04-30T04:21:50.089Z,17.23
2017-04-30T04:22:18.304Z,17.19
2017-04-30T04:22:46.625Z,17.19
2017-04-30T04:23:14.717Z,17.22
2017-04-30T04:23:42.844Z,17.27
2017-04-30T04:24:10.944Z,17.22
2017-04-30T04:24:39.066Z,17.27
2017-04-30T04:25:07.290Z,17.27
2017-04-30T04:31:39.326Z,17.22
2017-04-30T04:32:07.775Z,17.24
2017-04-30T04:32:36.168Z,17.28
2017-04-30T04:33:04.741Z,17.27
2017-04-30T04:33:33.314Z,17.24
2017-04-30T04:34:01.885Z,17.31
2017-04-30T04:34:30.464Z,17.27
2017-04-30T04:34:59.036Z,17.27
2017-04-30T04:35:27.583Z,17.3
2017-04-30T04:35:56.150Z,17.27
2017-04-30T04:36:24.621Z,17.23
2017-04-30T04:36:53.176Z,17.23
2017-04-30T04:37:21.735Z,17.27
2017-04-30T04:37:50.307Z,17.2
2017-04-30T04:38:18.786Z,17.2
2017-04-30T04:38:47.360Z,17.19
2017-04-30T04:39:15.928Z,17.2
2017-04-30T04:39:44.417Z,17.24
2017-04-30T04:40:12.982Z,17.28
2017-04-30T04:40:41.451Z,17.23
2017-04-30T04:41:10.026Z,17.19
2017-04-30T04:41:38.579Z,17.28
2017-04-30T04:42:07.153Z,17.17
2017-04-30T04:42:35.693Z,17.22
2017-04-30T04:43:04.245Z,17.2
2017-04-30T04:43:32.796Z,17.23
2017-04-30T04:44:01.348Z,17.16
2017-04-30T04:44:29.919Z,17.19
2017-04-30T04:44:58.463Z,17.16
2017-04-30T04:45:27.069Z,17.16
2017-04-30T04:45:55.615Z,17.14
2017-04-30T04:46:24.194Z,17.19
2017-04-30T04:46:52.776Z,17.14
2017-04-30T04:47:21.331Z,17.13
2017-04-30T04:47:49.913Z,17.1
2017-04-30T04:48:18.387Z,17.14
2017-04-30T04:48:46.858Z,17.07
2017-04-30T04:49:15.433Z,17.16
2017-04-30T04:49:43.994Z,17.13
2017-04-30T04:50:12.552Z,17.05
2017-04-30T04:50:41.124Z,16.98
2017-04-30T04:51:09.680Z,17.04
2017-04-30T04:51:38.160Z,17.09
2017-04-30T04:52:06.721Z,16.99
2017-04-30T04:52:35.272Z,17.02
2017-04-30T04:53:03.815Z,17.04
2017-04-30T04:53:32.376Z,17.01
2017-04-30T04:54:00.940Z,17.02
2017-04-30T04:54:29.502Z,16.99
2017-04-30T04:54:58.069Z,16.99
2017-04-30T04:55:26.636Z,17.04
2017-04-30T04:55:55.220Z,17.04
2017-04-30T04:56:23.692Z,17.07
2017-04-30T04:56:52.256Z,17.02
2017-04-30T04:57:20.808Z,17.07
2017-04-30T04:57:49.278Z,17.02
2017-04-30T04:58:17.846Z,17.01
2017-04-30T04:58:46.421Z,17.13
2017-04-30T04:59:14.988Z,17.04
2017-04-30T04:59:43.699Z,17.13
2017-04-30T05:00:12.191Z,17.12
2017-04-30T05:00:40.769Z,17.14
2017-04-30T05:01:09.333Z,17.09
2017-04-30T05:01:37.711Z,17.14
2017-04-30T05:02:06.277Z,17.04
2017-04-30T05:02:34.839Z,17.04
2017-04-30T05:03:03.407Z,17.04
2017-04-30T05:03:31.996Z,17.01
2017-04-30T05:04:00.529Z,17.02
2017-04-30T05:04:29.103Z,17.12
2017-04-30T05:04:57.708Z,17.04
2017-04-30T05:05:26.143Z,17.13
2017-04-30T05:05:54.725Z,17.04
2017-04-30T05:06:23.185Z,17.09
2017-04-30T05:06:51.646Z,17.07
2017-04-30T05:07:20.217Z,17.09
2017-04-30T05:07:48.796Z,17.09
2017-04-30T05:08:17.266Z,17.04
2017-04-30T05:08:45.825Z,17.02
2017-04-30T05:09:14.297Z,17.04
2017-04-30T05:09:42.883Z,17.02
2017-04-30T05:10:11.269Z,17.07
2017-04-30T05:10:39.851Z,17.01
2017-04-30T05:11:08.416Z,17.1
2017-04-30T05:11:36.964Z,17.01
2017-04-30T05:12:05.546Z,17.09
2017-04-30T05:12:34.113Z,17.02
2017-04-30T05:13:02.663Z,17.01
2017-04-30T05:13:31.143Z,17.05
2017-04-30T05:13:59.710Z,17.02
2017-04-30T05:14:28.290Z,17.01
2017-04-30T05:14:56.850Z,17.16
2017-04-30T05:15:25.355Z,17.01
2017-04-30T05:15:53.915Z,17.13
2017-04-30T05:16:22.387Z,17.09
2017-04-30T05:16:50.960Z,17.05
2017-04-30T05:17:19.468Z,17.13
2017-04-30T05:17:47.998Z,17.13
2017-04-30T05:18:16.551Z,17.16
2017-04-30T05:18:45.124Z,17.13
2017-04-30T05:19:13.710Z,17.17
2017-04-30T05:19:42.289Z,17.12
2017-04-30T05:20:10.834Z,17.2
2017-04-30T05:20:39.414Z,17.12
2017-04-30T05:21:07.984Z,17.14
2017-04-30T05:21:36.553Z,17.12
2017-04-30T05:22:05.114Z,17.19
2017-04-30T05:22:33.598Z,17.23
2017-04-30T05:23:02.193Z,17.2
2017-04-30T05:23:30.754Z,17.22
2017-04-30T05:23:59.321Z,17.16
2017-04-30T05:24:27.899Z,17.19
2017-04-30T05:24:56.478Z,17.2
2017-04-30T05:25:24.951Z,17.22
2017-04-30T05:25:53.441Z,17.14
2017-04-30T05:26:22.011Z,17.19
2017-04-30T05:26:50.591Z,17.19
2017-04-30T05:27:19.144Z,17.14
2017-04-30T05:27:47.259Z,17.14
2017-04-30T05:28:15.357Z,17.12
2017-04-30T05:28:43.446Z,17.12
2017-04-30T05:29:11.549Z,17.19
2017-04-30T05:29:39.559Z,17.13
2017-04-30T05:30:07.662Z,17.13
2017-04-30T05:30:35.750Z,17.12
2017-04-30T05:31:03.749Z,17.12
2017-04-30T05:31:31.751Z,17.14
2017-04-30T05:31:59.776Z,17.14
2017-04-30T05:32:27.694Z,17.1
2017-04-30T05:32:55.805Z,17.13
2017-04-30T05:33:23.909Z,17.1
2017-04-30T05:33:52.008Z,17.12
2017-04-30T05:34:20.022Z,17.09
2017-04-30T05:34:48.037Z,17.16
2017-04-30T05:35:16.053Z,17.16
2017-04-30T05:35:44.147Z,17.09
2017-04-30T05:36:12.261Z,17.13
2017-04-30T05:36:40.367Z,17.14
2017-04-30T05:37:08.473Z,17.09
2017-04-30T05:37:36.582Z,17.17
2017-04-30T05:38:04.592Z,17.13
2017-04-30T05:38:32.677Z,17.14
2017-04-30T05:39:00.703Z,17.12
2017-04-30T05:39:28.804Z,17.1
2017-04-30T05:39:56.899Z,17.17
2017-04-30T05:40:24.915Z,17.17
2017-04-30T05:40:53.026Z,17.17
2017-04-30T05:41:21.139Z,17.22
2017-04-30T05:41:49.134Z,17.23
2017-04-30T05:42:17.231Z,17.19
2017-04-30T05:42:45.370Z,17.2
2017-04-30T05:43:13.469Z,17.19
2017-04-30T05:43:41.562Z,17.24
2017-04-30T05:44:09.666Z,17.2
2017-04-30T05:44:37.673Z,17.19
2017-04-30T05:45:05.688Z,17.24
2017-04-30T05:45:33.608Z,17.17
2017-04-30T05:46:01.709Z,17.16
2017-04-30T05:46:29.823Z,17.16
2017-04-30T05:46:57.953Z,17.14
2017-04-30T05:47:26.056Z,17.12
2017-04-30T05:47:54.067Z,17.12
2017-04-30T05:48:22.169Z,17.17
2017-04-30T05:48:50.270Z,17.09
2017-04-30T05:49:18.287Z,17.12
2017-04-30T05:49:46.384Z,17.09
2017-04-30T05:50:14.468Z,17.1
2017-04-30T05:50:42.470Z,17.12
2017-04-30T05:51:10.560Z,17.1
2017-04-30T05:51:38.683Z,17.14
2017-04-30T05:52:06.697Z,17.16
2017-04-30T05:52:34.701Z,17.12
2017-04-30T05:53:02.792Z,17.14
2017-04-30T05:53:30.886Z,17.16
2017-04-30T05:53:59.020Z,17.12
2017-04-30T05:54:27.090Z,17.12
2017-04-30T05:54:55.201Z,17.1
2017-04-30T05:55:23.297Z,17.09
2017-04-30T05:55:51.304Z,17.17
2017-04-30T05:56:19.422Z,17.12
2017-04-30T05:56:47.526Z,17.12
2017-04-30T05:57:15.622Z,17.17
2017-04-30T05:57:43.736Z,17.14
2017-04-30T05:58:11.825Z,17.13
2017-04-30T05:58:39.834Z,17.13
2017-04-30T05:59:07.936Z,17.14
2017-04-30T05:59:36.362Z,17.16
2017-04-30T06:00:04.479Z,17.1
2017-04-30T06:00:32.505Z,17.1
2017-04-30T06:01:00.620Z,17.07
2017-04-30T06:01:28.540Z,17.01
2017-04-30T06:01:56.637Z,17.02
2017-04-30T06:02:24.747Z,16.98
2017-04-30T06:02:52.755Z,17.04
2017-04-30T06:03:20.861Z,17.01
2017-04-30T06:03:48.788Z,17.01
2017-04-30T06:04:16.800Z,17.02
2017-04-30T06:04:44.903Z,17.13
2017-04-30T06:05:13.007Z,17.16
2017-04-30T06:05:41.134Z,17.01
2017-04-30T06:06:09.156Z,17.04
2017-04-30T06:06:37.167Z,17.02
2017-04-30T06:07:05.276Z,17.1
2017-04-30T06:07:33.389Z,17.01
2017-04-30T06:08:01.481Z,17.04
2017-04-30T06:08:29.488Z,17.01
2017-04-30T06:08:57.602Z,17.05
2017-04-30T06:09:25.688Z,16.99
2017-04-30T06:09:53.791Z,17.01
2017-04-30T06:10:21.820Z,17.05